Time;durP1;ratioP1;P1;durP2;ratioP2;P2;SDS_P1;SDS_P2;PMS_P1;PMS_P2;Temp;Humidity;BMP_temperature;BMP_pressure;BME280_temperature;BME280_humidity;BME280_pressure;Samples;Min_cycle;Max_cycle;Signal;HPM_P1;HPM_P2
2023/06/11 00:01:26;;;;;;;9.18;7.70;;;20.80;68.90;;;;;;4991621;28;20061;-67
2023/06/11 00:03:53;;;;;;;8.50;7.25;;;20.70;69.00;;;;;;4996964;28;20034;-67
2023/06/11 00:06:22;;;;;;;8.50;6.93;;;20.70;69.20;;;;;;4993875;28;20043;-68
2023/06/11 00:08:49;;;;;;;7.88;6.97;;;20.70;69.10;;;;;;4994452;28;20046;-68
2023/06/11 00:11:17;;;;;;;8.88;7.10;;;20.70;69.00;;;;;;4994813;28;20058;-68
2023/06/11 00:13:44;;;;;;;10.70;8.20;;;20.60;69.20;;;;;;4999444;28;20152;-68
2023/06/11 00:16:13;;;;;;;9.13;7.43;;;20.60;69.40;;;;;;4992910;28;20621;-67
2023/06/11 00:18:41;;;;;;;8.88;7.63;;;20.50;69.60;;;;;;4991201;28;20136;-68
2023/06/11 00:21:08;;;;;;;8.38;7.40;;;20.50;69.90;;;;;;4994388;28;20058;-67
2023/06/11 00:23:36;;;;;;;8.77;7.38;;;20.40;70.00;;;;;;4993570;28;20074;-68
2023/06/11 00:26:04;;;;;;;9.10;7.45;;;20.40;70.20;;;;;;4992147;28;20132;-67
2023/06/11 00:28:33;;;;;;;10.32;7.50;;;20.40;70.40;;;;;;4995152;28;20056;-68
2023/06/11 00:31:00;;;;;;;9.27;7.78;;;20.30;70.50;;;;;;4981667;28;20042;-67
2023/06/11 00:33:27;;;;;;;8.45;7.50;;;20.30;70.40;;;;;;4978986;28;20052;-67
2023/06/11 00:35:54;;;;;;;12.30;8.15;;;20.30;70.60;;;;;;4991797;28;20909;-68
2023/06/11 00:38:21;;;;;;;8.65;7.70;;;20.20;70.70;;;;;;4990459;28;21113;-68
2023/06/11 00:40:48;;;;;;;9.93;7.80;;;20.20;70.90;;;;;;4992458;28;20501;-68
2023/06/11 00:43:17;;;;;;;9.43;7.65;;;20.20;71.00;;;;;;4995692;28;20049;-68
2023/06/11 00:45:47;;;;;;;9.80;8.15;;;20.10;71.00;;;;;;4994165;28;20205;-66
2023/06/11 00:48:13;;;;;;;11.70;8.80;;;20.10;71.00;;;;;;4993633;28;20134;-66
2023/06/11 00:50:47;;;;;;;11.73;9.15;;;20.10;71.00;;;;;;4993162;28;20727;-66
2023/06/11 00:53:14;;;;;;;10.82;8.65;;;20.10;71.10;;;;;;4996901;28;20498;-66
2023/06/11 00:55:41;;;;;;;9.73;7.85;;;20.00;71.30;;;;;;4979724;28;20469;-66
2023/06/11 00:58:13;;;;;;;10.20;8.48;;;19.90;71.40;;;;;;4992258;28;20949;-66
2023/06/11 01:00:42;;;;;;;9.80;8.45;;;19.90;71.60;;;;;;4992097;28;20046;-66
2023/06/11 01:03:17;;;;;;;10.60;8.63;;;19.90;71.70;;;;;;4997789;28;20066;-66
2023/06/11 01:05:49;;;;;;;10.05;8.48;;;19.70;72.00;;;;;;4993296;28;20134;-66
2023/06/11 01:08:19;;;;;;;10.38;8.50;;;19.80;71.80;;;;;;4986970;28;20054;-66
2023/06/11 01:10:50;;;;;;;9.82;8.30;;;19.70;72.00;;;;;;4972542;28;20060;-66
2023/06/11 01:13:17;;;;;;;8.73;7.30;;;19.70;72.10;;;;;;4995672;28;20050;-66
2023/06/11 01:15:45;;;;;;;10.45;7.75;;;19.70;72.10;;;;;;4981109;28;20078;-65
2023/06/11 01:18:18;;;;;;;10.70;7.90;;;19.70;72.00;;;;;;4968312;28;20080;-65
2023/06/11 01:20:54;;;;;;;10.10;8.07;;;19.70;71.90;;;;;;4993948;28;20049;-65
2023/06/11 01:23:31;;;;;;;11.35;8.45;;;19.60;72.10;;;;;;4976369;28;20077;-65
2023/06/11 01:26:18;;;;;;;10.60;8.82;;;19.60;72.10;;;;;;4976225;28;21262;-65
2023/06/11 01:28:50;;;;;;;10.52;8.45;;;19.60;72.10;;;;;;4983349;28;20050;-66
2023/06/11 01:31:17;;;;;;;9.43;8.10;;;19.50;72.50;;;;;;4990577;28;20049;-65
2023/06/11 01:33:45;;;;;;;9.95;7.88;;;19.50;72.80;;;;;;4990060;28;20116;-65
2023/06/11 01:36:17;;;;;;;9.85;8.25;;;19.40;72.80;;;;;;4981707;28;20139;-65
2023/06/11 01:38:44;;;;;;;10.20;8.38;;;19.40;72.90;;;;;;4985714;28;20379;-66
2023/06/11 01:41:27;;;;;;;10.02;8.40;;;19.40;72.90;;;;;;4974859;28;20505;-65
2023/06/11 01:43:56;;;;;;;9.20;8.23;;;19.30;72.90;;;;;;4989927;28;20053;-65
2023/06/11 01:46:23;;;;;;;8.98;7.47;;;19.30;73.00;;;;;;4994553;28;20045;-65
2023/06/11 01:48:50;;;;;;;8.88;7.68;;;19.30;73.10;;;;;;4973622;28;20066;-65
2023/06/11 01:51:17;;;;;;;10.43;8.85;;;19.20;73.20;;;;;;4990661;28;20061;-66
2023/06/11 01:53:44;;;;;;;10.00;8.50;;;19.20;73.30;;;;;;4993587;28;20050;-66
2023/06/11 01:56:11;;;;;;;11.25;8.82;;;19.20;73.40;;;;;;4994657;28;20520;-66
2023/06/11 01:58:38;;;;;;;11.73;9.10;;;19.20;73.40;;;;;;4985758;28;20077;-66
2023/06/11 02:01:08;;;;;;;10.13;7.97;;;19.10;73.50;;;;;;4973933;28;20052;-66
2023/06/11 02:03:36;;;;;;;11.20;8.52;;;19.10;73.50;;;;;;4979183;28;20101;-65
2023/06/11 02:06:03;;;;;;;9.25;8.15;;;19.00;73.70;;;;;;4977285;28;20050;-65
2023/06/11 02:08:30;;;;;;;10.35;8.32;;;19.00;74.00;;;;;;4988275;28;20038;-66
2023/06/11 02:10:57;;;;;;;10.75;8.40;;;18.90;74.10;;;;;;4991310;28;20050;-65
2023/06/11 02:13:25;;;;;;;9.05;7.55;;;18.90;74.00;;;;;;4997411;28;20050;-66
2023/06/11 02:15:52;;;;;;;9.13;8.00;;;18.90;74.00;;;;;;4993220;28;20053;-65
2023/06/11 02:18:20;;;;;;;10.07;8.30;;;18.90;74.00;;;;;;4987338;28;20050;-65
2023/06/11 02:20:47;;;;;;;10.23;8.38;;;18.80;74.00;;;;;;4978423;28;20058;-65
2023/06/11 02:23:14;;;;;;;10.23;7.53;;;18.80;74.20;;;;;;4992651;28;20046;-66
2023/06/11 02:25:41;;;;;;;9.75;8.43;;;18.70;74.30;;;;;;4991771;28;20047;-66
2023/06/11 02:28:08;;;;;;;9.13;7.90;;;18.80;74.10;;;;;;4977545;28;20046;-65
2023/06/11 02:30:35;;;;;;;8.70;7.07;;;18.80;74.00;;;;;;4968563;28;20046;-66
2023/06/11 02:33:02;;;;;;;9.90;7.85;;;18.80;73.90;;;;;;4978868;28;20053;-67
2023/06/11 02:35:32;;;;;;;10.27;7.35;;;18.90;73.80;;;;;;4976765;28;20054;-66
2023/06/11 02:37:59;;;;;;;10.05;7.93;;;18.70;74.10;;;;;;4983772;28;20514;-66
2023/06/11 02:40:26;;;;;;;8.77;7.13;;;18.80;74.00;;;;;;4992504;28;20425;-67
2023/06/11 02:42:53;;;;;;;7.88;6.78;;;18.80;74.00;;;;;;4994403;28;20401;-67
2023/06/11 02:45:20;;;;;;;9.57;7.70;;;18.80;73.90;;;;;;4992867;28;20141;-67
2023/06/11 02:47:47;;;;;;;11.32;8.02;;;18.80;73.80;;;;;;4992524;28;20528;-68
2023/06/11 02:50:14;;;;;;;9.60;7.57;;;18.70;74.00;;;;;;4968696;28;20038;-67
2023/06/11 02:52:42;;;;;;;9.95;6.95;;;18.70;74.10;;;;;;4971942;28;20508;-68
2023/06/11 02:55:09;;;;;;;8.45;7.55;;;18.60;74.30;;;;;;4974824;28;20056;-68
2023/06/11 02:57:36;;;;;;;9.73;8.10;;;18.60;74.40;;;;;;4986730;28;20364;-68
2023/06/11 03:00:04;;;;;;;12.30;7.60;;;18.60;74.10;;;;;;4988003;28;20069;-68
2023/06/11 03:02:31;;;;;;;8.82;7.70;;;18.60;74.00;;;;;;4988936;28;20042;-68
2023/06/11 03:04:58;;;;;;;9.77;8.10;;;18.70;73.80;;;;;;4983813;28;20149;-68
2023/06/11 03:07:25;;;;;;;11.15;7.97;;;18.70;74.00;;;;;;4993347;28;20060;-68
2023/06/11 03:09:54;;;;;;;9.75;7.93;;;18.60;74.10;;;;;;4992581;28;20034;-67
2023/06/11 03:12:21;;;;;;;9.32;7.72;;;18.60;74.20;;;;;;4983950;28;20049;-67
2023/06/11 03:14:48;;;;;;;10.77;8.05;;;18.60;74.10;;;;;;4970147;28;20116;-68
2023/06/11 03:17:15;;;;;;;9.68;7.88;;;18.60;74.20;;;;;;4992542;28;20069;-68
2023/06/11 03:19:42;;;;;;;8.38;7.28;;;18.50;74.20;;;;;;4994395;28;20046;-68
2023/06/11 03:22:10;;;;;;;8.52;7.43;;;18.50;74.30;;;;;;4977661;28;20049;-67
2023/06/11 03:24:38;;;;;;;9.15;7.90;;;18.40;74.30;;;;;;4982196;28;20090;-68
2023/06/11 03:27:15;;;;;;;9.65;8.00;;;18.40;74.50;;;;;;4983048;28;20046;-68
2023/06/11 03:29:42;;;;;;;10.23;8.15;;;18.40;74.30;;;;;;4993012;28;20046;-68
2023/06/11 03:32:10;;;;;;;10.13;8.25;;;18.40;74.40;;;;;;4993084;28;20058;-67
2023/06/11 03:34:37;;;;;;;9.77;7.93;;;18.30;74.50;;;;;;4985697;28;20125;-68
2023/06/11 03:37:04;;;;;;;8.68;7.50;;;18.30;74.60;;;;;;4996462;28;20054;-67
2023/06/11 03:39:31;;;;;;;9.40;8.20;;;18.30;74.60;;;;;;4976423;28;20057;-67
2023/06/11 03:41:58;;;;;;;9.13;7.68;;;18.20;74.80;;;;;;4979496;28;20137;-68
2023/06/11 03:44:29;;;;;;;10.48;7.53;;;18.20;74.80;;;;;;4979619;28;20038;-67
2023/06/11 03:46:57;;;;;;;10.73;8.35;;;18.20;74.90;;;;;;4980868;28;20058;-68
2023/06/11 03:49:24;;;;;;;10.60;7.82;;;18.10;75.10;;;;;;4978794;28;20104;-67
2023/06/11 03:51:51;;;;;;;9.02;7.47;;;18.10;75.00;;;;;;4988932;28;20459;-67
2023/06/11 03:54:18;;;;;;;8.20;7.40;;;18.10;75.00;;;;;;4978532;28;20109;-67
2023/06/11 03:56:45;;;;;;;8.13;6.97;;;18.10;75.00;;;;;;4978088;28;20042;-68
2023/06/11 03:59:11;;;;;;;9.18;7.57;;;18.10;74.90;;;;;;4996514;28;20501;-68
2023/06/11 04:01:40;;;;;;;8.70;7.78;;;18.10;75.00;;;;;;4974969;28;20386;-67
2023/06/11 04:04:07;;;;;;;10.10;8.10;;;18.10;75.00;;;;;;4976850;28;20137;-67
2023/06/11 04:06:37;;;;;;;9.43;7.50;;;18.10;75.00;;;;;;4968513;28;20420;-68
2023/06/11 04:09:05;;;;;;;7.75;6.40;;;18.10;74.90;;;;;;4979141;28;20498;-67
2023/06/11 04:11:32;;;;;;;10.25;7.32;;;18.10;74.90;;;;;;4989487;28;20155;-68
2023/06/11 04:13:59;;;;;;;8.20;7.32;;;18.10;75.00;;;;;;4989343;28;20147;-67
2023/06/11 04:16:26;;;;;;;8.05;7.18;;;18.10;75.00;;;;;;4978598;28;20058;-68
2023/06/11 04:18:54;;;;;;;8.82;7.05;;;18.10;75.10;;;;;;4976200;28;20052;-67
2023/06/11 04:21:21;;;;;;;8.82;7.47;;;18.10;75.10;;;;;;4980270;28;20070;-67
2023/06/11 04:23:48;;;;;;;8.00;6.82;;;18.10;75.20;;;;;;4976403;28;20081;-67
2023/06/11 04:26:19;;;;;;;9.35;7.38;;;18.10;75.40;;;;;;4980629;28;20058;-68
2023/06/11 04:28:48;;;;;;;10.25;7.82;;;18.10;75.40;;;;;;4978537;28;20070;-68
2023/06/11 04:31:15;;;;;;;10.57;7.75;;;18.10;75.50;;;;;;4992601;28;20042;-68
2023/06/11 04:33:45;;;;;;;9.77;8.05;;;18.10;75.20;;;;;;4966854;28;20054;-68
2023/06/11 04:36:14;;;;;;;9.98;7.65;;;18.10;75.10;;;;;;4987742;28;20057;-67
2023/06/11 04:38:44;;;;;;;11.77;8.45;;;18.10;75.10;;;;;;4980282;28;20073;-67
2023/06/11 04:41:13;;;;;;;10.27;7.88;;;18.10;75.10;;;;;;4979552;28;20489;-68
2023/06/11 04:43:44;;;;;;;8.68;7.68;;;18.20;75.10;;;;;;4980274;28;20140;-69
2023/06/11 04:46:12;;;;;;;10.38;8.35;;;18.30;74.90;;;;;;4974162;28;20054;-69
2023/06/11 04:48:38;;;;;;;9.65;7.65;;;18.30;74.90;;;;;;4992587;28;20042;-69
2023/06/11 04:51:06;;;;;;;9.43;7.63;;;18.30;74.90;;;;;;4992411;28;20045;-68
2023/06/11 04:53:42;;;;;;;10.88;7.93;;;18.30;74.90;;;;;;4977602;28;20046;-69
2023/06/11 04:56:11;;;;;;;10.32;8.30;;;18.30;75.00;;;;;;4989636;28;20126;-67
2023/06/11 04:58:39;;;;;;;9.52;7.82;;;18.20;75.10;;;;;;4975743;28;20047;-69
2023/06/11 05:01:08;;;;;;;8.90;7.32;;;18.30;75.00;;;;;;4970339;28;20058;-68
2023/06/11 05:03:37;;;;;;;7.78;6.97;;;18.30;75.10;;;;;;4973114;28;20074;-69
2023/06/11 05:06:05;;;;;;;9.82;8.00;;;18.30;74.90;;;;;;4990423;28;20057;-68
2023/06/11 05:08:34;;;;;;;9.20;8.18;;;18.40;74.80;;;;;;4986239;28;20129;-69
2023/06/11 05:11:03;;;;;;;10.85;7.78;;;18.50;74.70;;;;;;4989830;28;20074;-69
2023/06/11 05:13:33;;;;;;;9.07;7.82;;;18.40;74.90;;;;;;4974639;28;20069;-69
2023/06/11 05:16:05;;;;;;;9.30;7.70;;;18.50;74.80;;;;;;4966660;28;20054;-68
2023/06/11 05:18:32;;;;;;;9.18;8.05;;;18.40;74.90;;;;;;4975272;28;20513;-69
2023/06/11 05:21:02;;;;;;;11.63;7.78;;;18.50;74.80;;;;;;4972416;28;20497;-69
2023/06/11 05:23:31;;;;;;;9.52;7.93;;;18.60;74.70;;;;;;4975675;28;20056;-69
2023/06/11 05:26:11;;;;;;;8.35;7.38;;;18.60;74.70;;;;;;4980905;28;20426;-69
2023/06/11 05:28:40;;;;;;;8.85;7.90;;;18.70;74.50;;;;;;4987461;28;20115;-68
2023/06/11 05:31:11;;;;;;;8.70;7.45;;;18.70;74.50;;;;;;4977280;28;20502;-69
2023/06/11 05:33:38;;;;;;;7.68;6.88;;;18.70;74.90;;;;;;4972739;28;20054;-69
2023/06/11 05:36:06;;;;;;;9.93;7.60;;;18.70;74.70;;;;;;4977471;28;20050;-69
2023/06/11 05:38:33;;;;;;;10.25;8.40;;;18.80;74.60;;;;;;4977762;28;20048;-69
2023/06/11 05:41:01;;;;;;;10.18;7.10;;;18.80;74.60;;;;;;4990241;28;20046;-69
2023/06/11 05:43:29;;;;;;;9.07;7.80;;;18.80;74.40;;;;;;4973716;28;20050;-69
2023/06/11 05:45:56;;;;;;;11.23;7.38;;;18.90;74.40;;;;;;4976210;28;20060;-69
2023/06/11 05:48:26;;;;;;;8.52;7.47;;;18.90;74.60;;;;;;4964864;28;20053;-70
2023/06/11 05:50:53;;;;;;;9.43;7.77;;;19.00;74.60;;;;;;4976161;28;20057;-70
2023/06/11 05:53:21;;;;;;;8.95;7.40;;;19.00;74.60;;;;;;4980029;28;20461;-69
2023/06/11 05:55:48;;;;;;;9.30;7.40;;;18.90;74.80;;;;;;4992373;28;20058;-69
2023/06/11 05:58:15;;;;;;;9.10;7.30;;;19.00;74.50;;;;;;4974425;28;20117;-69
2023/06/11 06:00:43;;;;;;;8.52;7.45;;;19.00;74.20;;;;;;4967348;28;20137;-86
2023/06/11 06:03:10;;;;;;;9.52;7.53;;;19.10;74.30;;;;;;4995201;28;20051;-86
2023/06/11 06:05:37;;;;;;;9.85;7.75;;;19.10;73.60;;;;;;4979285;28;20057;-70
2023/06/11 06:08:05;;;;;;;9.10;7.88;;;19.10;73.50;;;;;;4989028;28;20124;-70
2023/06/11 06:10:33;;;;;;;8.48;7.18;;;19.20;73.70;;;;;;4970405;28;20050;-70
2023/06/11 06:13:00;;;;;;;8.32;7.38;;;19.30;73.90;;;;;;4974337;28;20061;-70
2023/06/11 06:15:27;;;;;;;9.35;7.75;;;19.30;73.70;;;;;;4972086;28;20054;-70
2023/06/11 06:17:56;;;;;;;9.10;7.53;;;19.40;73.70;;;;;;4975331;28;20388;-70
2023/06/11 06:20:30;;;;;;;10.27;7.72;;;19.50;74.00;;;;;;4996210;28;20050;-70
2023/06/11 06:22:57;;;;;;;8.30;7.38;;;19.60;73.70;;;;;;4987354;28;20096;-70
2023/06/11 06:25:25;;;;;;;9.32;8.00;;;19.60;73.50;;;;;;4971858;28;20070;-70
2023/06/11 06:27:53;;;;;;;9.38;7.75;;;19.70;73.20;;;;;;4975623;28;20053;-70
2023/06/11 06:30:20;;;;;;;10.52;9.13;;;19.80;73.00;;;;;;4989453;28;20075;-70
2023/06/11 06:32:48;;;;;;;9.82;8.38;;;19.90;72.70;;;;;;4975315;28;20512;-85
2023/06/11 06:35:16;;;;;;;9.85;8.02;;;20.00;72.40;;;;;;4979993;28;20064;-86
2023/06/11 06:37:44;;;;;;;9.10;7.88;;;20.20;71.80;;;;;;4980387;28;20049;-68
2023/06/11 06:40:12;;;;;;;10.43;7.80;;;20.30;71.40;;;;;;4991820;28;20042;-69
2023/06/11 06:42:39;;;;;;;8.77;7.53;;;20.50;71.10;;;;;;4975924;28;20066;-69
2023/06/11 06:45:07;;;;;;;8.95;8.05;;;20.60;70.50;;;;;;4990015;28;20067;-69
2023/06/11 06:47:34;;;;;;;11.57;8.55;;;20.70;70.10;;;;;;4991059;28;20052;-69
2023/06/11 06:50:01;;;;;;;9.93;8.52;;;20.90;69.60;;;;;;4973126;28;20046;-69
2023/06/11 06:52:31;;;;;;;10.98;9.35;;;21.10;69.20;;;;;;4974605;28;20073;-69
2023/06/11 06:54:58;;;;;;;10.48;8.68;;;21.20;68.80;;;;;;4972947;28;20046;-71
2023/06/11 06:57:25;;;;;;;9.45;8.23;;;21.30;68.70;;;;;;4975800;28;20045;-70
2023/06/11 06:59:52;;;;;;;11.50;8.63;;;21.50;68.30;;;;;;4991207;28;20058;-71
2023/06/11 07:02:19;;;;;;;9.73;8.13;;;21.60;67.80;;;;;;4993840;28;20065;-86
2023/06/11 07:04:46;;;;;;;10.32;9.07;;;21.80;67.50;;;;;;4973308;28;20054;-86
2023/06/11 07:07:14;;;;;;;9.98;8.20;;;21.90;66.90;;;;;;4971969;28;20061;-71
2023/06/11 07:09:43;;;;;;;9.52;8.00;;;22.10;66.70;;;;;;4973128;28;20073;-70
2023/06/11 07:12:11;;;;;;;13.27;8.73;;;22.20;66.40;;;;;;4994165;28;20580;-77
2023/06/11 07:14:38;;;;;;;9.73;7.82;;;22.30;66.60;;;;;;4978266;28;20618;-77
2023/06/11 07:17:06;;;;;;;9.70;8.50;;;22.60;66.20;;;;;;4971831;28;20046;-76
2023/06/11 07:19:33;;;;;;;8.82;7.90;;;22.70;65.40;;;;;;4976450;28;20115;-76
2023/06/11 07:22:00;;;;;;;10.02;8.45;;;23.00;64.70;;;;;;4995439;28;20497;-70
2023/06/11 07:24:27;;;;;;;10.77;7.60;;;23.20;64.10;;;;;;4974704;28;20133;-71
2023/06/11 07:26:55;;;;;;;9.20;8.05;;;23.30;63.90;;;;;;4978839;28;20046;-70
2023/06/11 07:29:22;;;;;;;9.23;7.57;;;23.50;63.10;;;;;;4974835;28;20050;-71
2023/06/11 07:31:49;;;;;;;8.60;7.53;;;23.70;62.70;;;;;;4978608;28;20391;-70
2023/06/11 07:34:18;;;;;;;8.02;7.15;;;23.70;62.80;;;;;;4983108;28;20050;-71
2023/06/11 07:36:46;;;;;;;9.20;7.65;;;23.90;62.50;;;;;;4971883;28;20064;-71
2023/06/11 07:39:13;;;;;;;8.13;7.25;;;24.10;61.90;;;;;;4997586;28;20079;-70
2023/06/11 07:41:40;;;;;;;8.55;7.03;;;24.20;60.50;;;;;;4981792;28;20046;-87
2023/06/11 07:44:10;;;;;;;9.60;7.25;;;24.40;59.80;;;;;;4980667;28;20057;-87
2023/06/11 07:46:37;;;;;;;7.47;6.35;;;24.50;58.60;;;;;;4980145;28;20058;-67
2023/06/11 07:49:05;;;;;;;7.70;6.25;;;24.80;57.30;;;;;;4977562;28;20052;-67
2023/06/11 07:51:32;;;;;;;7.60;6.80;;;25.00;56.80;;;;;;4984659;28;20046;-88
2023/06/11 07:54:04;;;;;;;9.95;7.32;;;25.10;55.50;;;;;;4985949;28;20085;-88
2023/06/11 07:56:31;;;;;;;7.43;6.40;;;25.10;55.80;;;;;;4997060;28;20841;-67
2023/06/11 07:58:58;;;;;;;8.38;6.97;;;25.20;55.70;;;;;;4997903;28;20049;-67
2023/06/11 08:01:27;;;;;;;8.20;6.68;;;25.30;55.00;;;;;;4999670;28;20413;-76
2023/06/11 08:03:54;;;;;;;8.50;6.82;;;25.40;54.20;;;;;;4998865;28;20046;-75
2023/06/11 08:06:22;;;;;;;8.27;6.55;;;25.60;53.10;;;;;;4996762;28;20059;-69
2023/06/11 08:08:50;;;;;;;8.70;7.03;;;25.70;52.90;;;;;;4996782;28;20046;-69
2023/06/11 08:11:17;;;;;;;7.10;6.20;;;25.90;51.30;;;;;;4996531;28;20050;-70
2023/06/11 08:13:44;;;;;;;8.13;6.13;;;26.00;51.40;;;;;;4996629;28;20054;-69
2023/06/11 08:16:11;;;;;;;7.50;6.70;;;26.10;51.80;;;;;;4997569;28;20061;-70
2023/06/11 08:18:39;;;;;;;7.18;6.18;;;26.20;51.00;;;;;;4996413;28;20054;-70
2023/06/11 08:21:06;;;;;;;8.68;5.97;;;26.30;50.20;;;;;;4995166;28;20460;-88
2023/06/11 08:23:36;;;;;;;8.32;6.80;;;26.40;49.90;;;;;;4997914;28;20125;-84
2023/06/11 08:26:03;;;;;;;7.50;6.05;;;26.50;49.30;;;;;;4999501;28;20046;-86
2023/06/11 08:28:30;;;;;;;8.15;6.32;;;26.60;48.00;;;;;;4997675;28;20038;-83
2023/06/11 08:30:57;;;;;;;7.10;5.90;;;26.80;48.40;;;;;;4999688;28;20054;-87
2023/06/11 08:33:24;;;;;;;7.85;5.72;;;26.90;47.40;;;;;;4994809;28;20058;-84
2023/06/11 08:35:52;;;;;;;8.55;5.88;;;26.90;47.90;;;;;;4996624;28;20054;-63
2023/06/11 08:38:19;;;;;;;7.72;5.95;;;26.90;47.60;;;;;;4996747;28;20421;-63
2023/06/11 08:40:46;;;;;;;7.80;5.75;;;27.00;47.40;;;;;;4992364;28;20085;-70
2023/06/11 08:43:13;;;;;;;7.78;6.30;;;27.10;47.30;;;;;;4996884;28;20061;-70
2023/06/11 08:45:40;;;;;;;11.85;7.72;;;27.10;47.70;;;;;;4998063;28;20065;-70
2023/06/11 08:48:10;;;;;;;11.48;8.25;;;27.30;47.40;;;;;;4996076;28;20502;-70
2023/06/11 08:50:37;;;;;;;13.52;8.98;;;27.40;47.50;;;;;;4995105;28;20101;-66
2023/06/11 08:53:06;;;;;;;11.55;8.52;;;27.50;47.20;;;;;;4989491;28;20053;-66
2023/06/11 08:55:33;;;;;;;11.45;9.05;;;27.50;46.40;;;;;;4995853;28;20486;-69
2023/06/11 08:58:01;;;;;;;9.52;7.70;;;27.60;45.60;;;;;;4995230;28;20058;-70
2023/06/11 09:00:28;;;;;;;14.00;6.63;;;27.70;43.30;;;;;;4993802;28;20049;-71
2023/06/11 09:02:55;;;;;;;7.45;5.78;;;27.80;41.20;;;;;;4996578;28;20088;-69
2023/06/11 09:05:22;;;;;;;9.73;7.07;;;27.70;41.80;;;;;;4994298;28;20054;-71
2023/06/11 09:07:50;;;;;;;9.45;7.10;;;27.80;41.80;;;;;;4994584;28;20054;-70
2023/06/11 09:10:19;;;;;;;11.15;9.15;;;28.00;42.60;;;;;;4995718;28;20042;-70
2023/06/11 09:12:46;;;;;;;13.50;11.57;;;28.10;42.00;;;;;;4997076;28;20100;-70
2023/06/11 09:15:14;;;;;;;14.43;10.63;;;28.10;42.50;;;;;;4994053;28;20065;-71
2023/06/11 09:17:43;;;;;;;12.05;10.80;;;28.30;42.00;;;;;;4995962;28;20114;-69
2023/06/11 09:20:12;;;;;;;13.98;12.38;;;28.40;40.20;;;;;;4994052;28;20447;-69
2023/06/11 09:22:41;;;;;;;10.73;9.63;;;28.40;41.10;;;;;;4992054;28;20050;-70
2023/06/11 09:25:10;;;;;;;10.63;9.18;;;28.30;40.90;;;;;;4993942;28;20391;-70
2023/06/11 09:27:39;;;;;;;10.73;7.55;;;28.40;40.40;;;;;;4994226;28;20050;-70
2023/06/11 09:30:11;;;;;;;9.70;7.70;;;28.60;40.50;;;;;;4991336;28;20112;-70
2023/06/11 09:32:41;;;;;;;9.43;7.50;;;28.60;41.20;;;;;;4994979;28;20065;-62
2023/06/11 09:35:09;;;;;;;8.55;7.38;;;28.80;41.40;;;;;;4993966;28;20142;-62
2023/06/11 09:37:41;;;;;;;8.98;6.78;;;28.80;40.50;;;;;;4994937;28;20050;-62
2023/06/11 09:40:10;;;;;;;7.50;5.75;;;28.90;38.50;;;;;;4993797;28;20074;-62
2023/06/11 09:42:40;;;;;;;6.97;5.47;;;29.00;38.00;;;;;;4995818;28;20596;-62
2023/06/11 09:45:16;;;;;;;7.47;5.22;;;28.90;37.10;;;;;;4995035;28;20161;-64
2023/06/11 09:47:44;;;;;;;7.43;4.85;;;28.90;37.20;;;;;;4984707;28;20138;-63
2023/06/11 09:50:13;;;;;;;10.13;5.70;;;29.10;37.60;;;;;;4993916;28;20525;-62
2023/06/11 09:52:41;;;;;;;7.95;5.65;;;29.20;37.60;;;;;;4972380;28;20049;-62
2023/06/11 09:55:09;;;;;;;7.15;5.95;;;29.20;37.60;;;;;;4987049;28;20430;-62
2023/06/11 09:57:38;;;;;;;12.30;7.22;;;29.20;38.20;;;;;;4991990;28;20054;-62
2023/06/11 10:00:11;;;;;;;11.48;6.80;;;29.30;38.50;;;;;;4993866;28;20046;-62
2023/06/11 10:02:39;;;;;;;9.25;7.07;;;29.40;37.60;;;;;;4987479;28;20124;-62
2023/06/11 10:05:08;;;;;;;7.60;5.72;;;29.50;35.80;;;;;;4994503;28;20100;-62
2023/06/11 10:07:40;;;;;;;7.82;5.85;;;29.50;35.80;;;;;;4989967;28;20053;-62
2023/06/11 10:10:11;;;;;;;6.97;5.03;;;29.50;35.30;;;;;;4989026;28;20050;-61
2023/06/11 10:12:39;;;;;;;7.53;5.00;;;29.60;35.50;;;;;;4991084;28;20058;-63
2023/06/11 10:15:11;;;;;;;7.75;5.38;;;29.60;35.30;;;;;;4980129;28;20510;-61
2023/06/11 10:17:49;;;;;;;9.93;7.20;;;29.70;36.30;;;;;;4986573;28;20058;-61
2023/06/11 10:20:21;;;;;;;10.80;6.90;;;29.80;35.30;;;;;;4988711;28;20054;-62
2023/06/11 10:22:48;;;;;;;9.23;6.53;;;29.90;35.30;;;;;;4979192;28;20077;-61
2023/06/11 10:25:16;;;;;;;8.15;5.95;;;29.90;35.60;;;;;;4989874;28;20204;-61
2023/06/11 10:27:49;;;;;;;7.40;6.32;;;30.00;35.60;;;;;;4988858;28;20085;-61
2023/06/11 10:30:24;;;;;;;8.00;6.32;;;30.10;36.10;;;;;;4996025;28;20054;-62
2023/06/11 10:32:53;;;;;;;11.80;6.07;;;30.10;36.10;;;;;;4995509;28;20046;-62
2023/06/11 10:35:24;;;;;;;7.53;6.25;;;30.20;36.10;;;;;;4993273;28;20053;-62
2023/06/11 10:38:01;;;;;;;7.47;5.82;;;30.30;36.00;;;;;;4996036;28;20050;-61
2023/06/11 10:40:32;;;;;;;8.38;7.07;;;30.40;36.00;;;;;;4986736;28;20047;-61
2023/06/11 10:43:04;;;;;;;8.32;6.22;;;30.40;37.20;;;;;;4988144;28;20050;-61
2023/06/11 10:45:38;;;;;;;8.13;6.22;;;30.50;36.00;;;;;;4988521;28;20057;-62
2023/06/11 10:48:06;;;;;;;8.90;6.32;;;30.50;35.30;;;;;;4995773;28;20070;-61
2023/06/11 10:50:33;;;;;;;7.80;6.28;;;30.40;36.50;;;;;;4994270;28;21110;-62
2023/06/11 10:53:02;;;;;;;7.60;6.13;;;30.50;36.10;;;;;;4994795;28;20046;-62
2023/06/11 10:55:30;;;;;;;8.07;5.97;;;30.60;36.30;;;;;;4995121;28;20068;-63
2023/06/11 10:57:58;;;;;;;6.83;5.90;;;30.40;35.90;;;;;;4992511;28;20046;-61
2023/06/11 11:00:28;;;;;;;7.60;6.07;;;30.20;35.30;;;;;;4995691;28;20117;-69
2023/06/11 11:06:04;;;;;;;7.95;5.70;;;30.20;35.30;;;;;;4966023;28;20050;-69
2023/06/11 11:08:34;;;;;;;8.57;7.03;;;30.20;35.00;;;;;;4995809;28;20046;-69
2023/06/11 11:11:08;;;;;;;7.43;6.57;;;30.40;35.70;;;;;;4994205;28;20129;-70
2023/06/11 11:13:36;;;;;;;8.88;5.63;;;30.50;36.10;;;;;;4992331;28;20097;-69
2023/06/11 11:16:05;;;;;;;7.25;5.38;;;30.50;35.80;;;;;;4993552;28;20065;-66
2023/06/11 11:18:32;;;;;;;6.68;4.88;;;30.60;34.60;;;;;;4992126;28;20046;-67
2023/06/11 11:21:00;;;;;;;6.18;5.15;;;30.60;34.90;;;;;;4993018;28;20070;-68
2023/06/11 11:23:27;;;;;;;7.28;5.15;;;30.70;33.80;;;;;;4994358;28;20050;-68
2023/06/11 11:25:54;;;;;;;6.95;5.38;;;30.90;33.50;;;;;;4992552;28;20050;-79
2023/06/11 11:28:21;;;;;;;7.10;5.22;;;30.70;33.50;;;;;;4996125;28;20052;-78
2023/06/11 11:30:50;;;;;;;6.50;5.38;;;30.50;32.90;;;;;;4993551;28;20054;-70
2023/06/11 11:33:19;;;;;;;6.88;5.20;;;30.20;31.90;;;;;;4992733;28;20058;-70
2023/06/11 11:35:47;;;;;;;7.38;4.63;;;30.10;32.10;;;;;;4993427;28;20459;-62
2023/06/11 11:38:14;;;;;;;6.65;4.75;;;30.20;31.80;;;;;;4994049;28;20073;-62
2023/06/11 11:40:41;;;;;;;6.90;5.05;;;30.10;31.70;;;;;;4994847;28;20053;-67
2023/06/11 11:43:12;;;;;;;7.15;5.90;;;30.00;31.90;;;;;;4995302;28;20059;-66
2023/06/11 11:45:39;;;;;;;7.93;6.10;;;29.90;32.80;;;;;;4993899;28;20050;-78
2023/06/11 11:48:08;;;;;;;7.40;6.03;;;30.00;33.70;;;;;;4991318;28;20469;-78
2023/06/11 11:50:38;;;;;;;8.02;5.88;;;30.20;32.80;;;;;;4985253;28;20601;-71
2023/06/11 11:53:06;;;;;;;7.88;6.45;;;30.30;33.20;;;;;;4993125;28;20042;-71
2023/06/11 11:55:35;;;;;;;7.22;6.13;;;30.20;33.10;;;;;;4995171;28;20486;-67
2023/06/11 11:58:06;;;;;;;6.97;5.50;;;30.20;32.30;;;;;;4991655;28;20050;-66
2023/06/11 12:00:34;;;;;;;7.05;5.47;;;30.30;32.10;;;;;;4994275;28;20134;-62
2023/06/11 12:03:08;;;;;;;7.35;4.78;;;30.40;31.60;;;;;;4996225;28;20049;-62
2023/06/11 12:05:36;;;;;;;8.05;4.85;;;30.50;31.00;;;;;;4994111;28;20132;-70
2023/06/11 12:08:04;;;;;;;6.55;4.30;;;30.60;30.20;;;;;;4995639;28;20054;-68
2023/06/11 12:10:31;;;;;;;7.20;4.10;;;30.60;30.10;;;;;;4998526;28;20574;-61
2023/06/11 12:12:59;;;;;;;5.32;4.20;;;30.60;29.50;;;;;;4998337;28;20061;-61
2023/06/11 12:15:26;;;;;;;6.40;4.95;;;30.80;28.90;;;;;;4993159;28;20050;-68
2023/06/11 12:17:53;;;;;;;6.18;4.95;;;30.80;30.50;;;;;;4981630;28;20050;-68
2023/06/11 12:20:21;;;;;;;7.15;5.43;;;30.80;29.50;;;;;;4980170;28;20058;-67
2023/06/11 12:22:49;;;;;;;6.45;4.90;;;30.80;29.30;;;;;;4983000;28;20047;-67
2023/06/11 12:25:17;;;;;;;5.75;4.70;;;30.90;27.50;;;;;;4978039;28;20054;-78
2023/06/11 12:27:44;;;;;;;7.72;5.03;;;30.90;27.60;;;;;;4983152;28;20058;-80
2023/06/11 12:30:14;;;;;;;6.97;4.60;;;30.90;28.30;;;;;;4985940;28;20058;-70
2023/06/11 12:32:41;;;;;;;7.78;5.20;;;30.90;28.70;;;;;;4983538;28;20085;-78
2023/06/11 12:35:08;;;;;;;6.28;4.85;;;30.80;28.00;;;;;;4987767;28;20053;-79
2023/06/11 12:37:39;;;;;;;8.65;6.57;;;30.80;28.00;;;;;;4987313;28;20057;-79
2023/06/11 12:40:09;;;;;;;8.43;7.32;;;30.70;28.50;;;;;;4990603;28;20056;-80
2023/06/11 12:42:37;;;;;;;6.85;6.13;;;30.60;28.30;;;;;;4986719;28;20217;-79
2023/06/11 12:45:04;;;;;;;7.07;6.05;;;30.70;28.40;;;;;;4989524;28;20277;-79
2023/06/11 12:47:31;;;;;;;6.75;6.05;;;30.70;28.40;;;;;;4990621;28;20050;-79
2023/06/11 12:49:58;;;;;;;8.05;5.38;;;30.70;29.50;;;;;;4996798;28;20413;-78
2023/06/11 12:52:25;;;;;;;6.15;5.00;;;30.60;29.20;;;;;;4989246;28;20042;-79